Terminal Aerodrome Forecast
Issued by NWS Sterling, VA

Home | Current Version | Previous Version | Text Only | Print | Product List | Glossary On
Versions: 1 2 3 4 5 6 7 8 9 10 11 12 13 14 15 16
000
FTUS41 KLWX 101100
TAFMRB
TAF
KMRB 101137Z 1012/1112 VRB03KT P6SM FEW050 SCT130
     FM101700 VRB03KT P6SM VCTS BKN050CB BKN130
     FM110000 VRB03KT P6SM BKN050 BKN130
     FM110500 00000KT P6SM FEW050 SCT130=

USA.gov is the U.S. government's official web portal to all federal, state and local government web resources and services.